Time;durP1;ratioP1;P1;durP2;ratioP2;P2;SDS_P1;SDS_P2;PMS_P1;PMS_P2;Temp;Humidity;BMP_temperature;BMP_pressure;BME280_temperature;BME280_humidity;BME280_pressure;Samples;Min_cycle;Max_cycle;Signal;HPM_P1;HPM_P2
2022/11/03 00:02:52;;;;;;;5.57;2.60;;;;;;;10.75;89.78;99588.16;4994117;28;20054;-58
2022/11/03 00:08:41;;;;;;;5.30;2.03;;;;;;;10.03;92.88;99585.91;5002851;28;20050;-59
2022/11/03 00:11:26;;;;;;;18.80;2.47;;;;;;;9.86;94.47;99585.88;4990179;28;20081;-59
2022/11/03 00:14:11;;;;;;;5.50;2.40;;;;;;;9.73;96.28;99593.50;4993162;28;20482;-59
2022/11/03 00:16:56;;;;;;;6.20;1.98;;;;;;;9.92;95.87;99592.53;4995051;28;20097;-57
2022/11/03 00:19:40;;;;;;;4.88;2.13;;;;;;;10.09;93.91;99589.03;4980094;28;20061;-59
2022/11/03 00:22:25;;;;;;;4.22;2.10;;;;;;;10.12;94.48;99585.41;4992585;28;20409;-56
2022/11/03 00:25:10;;;;;;;7.43;1.95;;;;;;;10.25;92.88;99587.38;4997470;28;20034;-58
2022/11/03 00:27:55;;;;;;;4.13;2.17;;;;;;;10.28;92.29;99581.97;5001214;28;20439;-58
2022/11/03 00:30:39;;;;;;;4.20;1.98;;;;;;;10.29;91.51;99591.50;5002820;28;20042;-56
2022/11/03 00:33:26;;;;;;;5.22;1.90;;;;;;;10.26;91.70;99592.53;4998558;28;20509;-59
2022/11/03 00:36:18;;;;;;;4.03;1.98;;;;;;;10.40;90.79;99596.16;4984075;28;20121;-57
2022/11/03 00:39:03;;;;;;;6.47;2.25;;;;;;;10.39;90.10;99597.09;4985068;28;20048;-56
2022/11/03 00:41:48;;;;;;;7.22;2.00;;;;;;;10.34;90.27;99592.09;4990029;28;20042;-58
2022/11/03 00:44:33;;;;;;;6.82;1.92;;;;;;;10.36;89.71;99600.75;5001133;28;20101;-57
2022/11/03 00:47:17;;;;;;;5.20;1.80;;;;;;;10.35;89.78;99606.88;4997375;28;20039;-58
2022/11/03 00:50:02;;;;;;;5.95;1.60;;;;;;;10.42;89.77;99604.78;4996146;28;20054;-58
2022/11/03 00:52:46;;;;;;;4.55;2.00;;;;;;;10.50;89.42;99596.53;4980437;28;20066;-57
2022/11/03 00:55:30;;;;;;;4.55;1.70;;;;;;;10.42;88.67;99592.53;4975048;28;20035;-57
2022/11/03 00:58:15;;;;;;;2.90;1.60;;;;;;;10.46;88.58;99594.06;4976786;28;20102;-58
2022/11/03 01:01:03;;;;;;;3.58;1.23;;;;;;;10.42;88.21;99592.53;4976638;28;20482;-57
2022/11/03 01:06:57;;;;;;;3.72;1.75;;;;;;;10.23;88.48;99593.53;4976307;28;20074;-58
2022/11/03 01:09:42;;;;;;;5.43;1.73;;;;;;;10.22;87.98;99585.75;4973415;28;20085;-59
2022/11/03 01:12:27;;;;;;;4.03;1.45;;;;;;;10.05;87.88;99571.81;4981143;28;20050;-57
2022/11/03 01:15:12;;;;;;;4.28;1.38;;;;;;;10.19;88.11;99575.44;4974433;28;20060;-58
2022/11/03 01:17:56;;;;;;;5.25;2.00;;;;;;;10.28;87.54;99576.72;4975342;28;20073;-58
2022/11/03 01:20:41;;;;;;;3.85;1.73;;;;;;;10.49;86.47;99576.50;4977541;28;20190;-57
2022/11/03 01:23:25;;;;;;;4.82;1.73;;;;;;;10.59;85.76;99564.59;4976298;28;20061;-58
2022/11/03 01:26:12;;;;;;;3.78;1.65;;;;;;;10.58;86.32;99566.38;4973880;28;20046;-58
2022/11/03 01:28:58;;;;;;;5.18;2.17;;;;;;;10.69;85.72;99563.13;4973225;28;20146;-56
2022/11/03 01:31:43;;;;;;;7.55;2.63;;;;;;;10.68;85.08;99571.94;4972533;28;20479;-58
2022/11/03 01:34:28;;;;;;;4.85;2.55;;;;;;;9.86;91.05;99572.78;4973615;28;20129;-58
2022/11/03 01:37:12;;;;;;;5.47;2.67;;;;;;;10.05;93.55;99574.44;4973141;28;20091;-59
2022/11/03 01:39:57;;;;;;;7.10;3.78;;;;;;;9.85;94.67;99568.50;4960075;28;20497;-59
2022/11/03 01:42:41;;;;;;;5.68;3.58;;;;;;;9.77;96.39;99572.41;4979459;28;20051;-57
2022/11/03 01:45:26;;;;;;;8.80;3.30;;;;;;;9.97;95.70;99566.16;4982883;28;20062;-58
2022/11/03 01:48:11;;;;;;;10.15;3.30;;;;;;;10.02;94.90;99561.50;4977846;28;20043;-57
2022/11/03 01:50:56;;;;;;;4.95;3.22;;;;;;;9.81;95.70;99551.25;4974700;28;20086;-60
2022/11/03 01:53:45;;;;;;;6.43;3.42;;;;;;;9.83;96.57;99548.53;4976972;28;20091;-56
2022/11/03 01:56:33;;;;;;;6.55;3.47;;;;;;;9.86;96.65;99549.22;4973556;28;20132;-58
2022/11/03 01:59:21;;;;;;;7.20;3.28;;;;;;;9.72;97.08;99546.50;4970917;28;20043;-58
2022/11/03 02:02:05;;;;;;;5.50;2.70;;;;;;;9.46;98.07;99541.72;4968142;28;20043;-56
2022/11/03 02:04:50;;;;;;;5.78;2.83;;;;;;;9.44;97.92;99538.31;4974267;28;20089;-59
2022/11/03 02:07:42;;;;;;;5.15;2.75;;;;;;;9.55;96.87;99539.50;4972532;28;20489;-56
2022/11/03 02:10:26;;;;;;;;;;;;;;;9.24;96.27;99532.34;4978414;28;20054;-57
2022/11/03 02:13:28;;;;;;;6.65;2.20;;;;;;;9.36;97.15;99522.19;4973197;28;19929;-58
2022/11/03 02:16:13;;;;;;;6.80;1.90;;;;;;;9.50;94.57;99516.22;4976734;28;20046;-58
2022/11/03 02:19:41;;;;;;;10.60;2.13;;;;;;;9.68;93.91;99514.41;4974360;28;20551;-58
2022/11/03 02:22:47;;;;;;;3.90;1.60;;;;;;;9.76;93.50;99513.16;4969076;28;20054;-58
2022/11/03 02:25:42;;;;;;;5.25;2.55;;;;;;;9.82;92.78;99518.06;4973356;28;20483;-57
2022/11/03 02:28:29;;;;;;;5.60;2.30;;;;;;;9.91;92.29;99522.81;4972974;28;20050;-56
2022/11/03 02:31:27;;;;;;;10.27;3.45;;;;;;;9.64;93.38;99518.13;4959338;28;20043;-58
2022/11/03 02:34:22;;;;;;;6.40;3.42;;;;;;;9.38;96.64;99511.63;4974140;28;20035;-57
2022/11/03 02:37:20;;;;;;;6.20;3.00;;;;;;;9.41;97.66;99516.69;4971206;28;20054;-58
2022/11/03 02:40:11;;;;;;;5.40;2.40;;;;;;;9.56;95.06;99513.31;4968303;28;20053;-58
2022/11/03 02:42:58;;;;;;;7.53;2.05;;;;;;;9.53;94.43;99502.16;4973838;28;20085;-57
2022/11/03 02:45:46;;;;;;;4.95;1.95;;;;;;;9.69;93.64;99495.19;4955366;28;20046;-59
2022/11/03 02:48:31;;;;;;;3.67;1.40;;;;;;;9.74;92.81;99500.19;4979990;28;20486;-59
2022/11/03 02:51:16;;;;;;;4.20;1.70;;;;;;;9.83;91.79;99504.91;4976288;28;20497;-58
2022/11/03 02:54:13;;;;;;;6.10;1.80;;;;;;;9.80;91.91;99498.97;4999131;28;20042;-61
2022/11/03 02:57:14;;;;;;;3.40;1.30;;;;;;;9.89;91.54;99495.03;4992837;28;20042;-58
2022/11/03 03:00:05;;;;;;;5.47;1.40;;;;;;;9.86;91.32;99496.88;4981050;28;20054;-58
2022/11/03 03:03:06;;;;;;;4.47;1.50;;;;;;;9.84;91.52;99490.88;4995928;28;20037;-58
2022/11/03 03:05:55;;;;;;;3.58;1.70;;;;;;;9.90;91.12;99507.19;4995609;28;20065;-59
2022/11/03 03:08:48;;;;;;;2.90;1.40;;;;;;;9.87;91.14;99497.75;4990844;28;20050;-57
2022/11/03 03:11:36;;;;;;;4.63;1.35;;;;;;;9.95;91.07;99495.56;4990234;28;20133;-58
2022/11/03 03:14:25;;;;;;;4.72;1.75;;;;;;;9.90;91.10;99497.56;4993030;28;20094;-58
2022/11/03 03:17:22;;;;;;;3.70;1.33;;;;;;;9.98;90.79;99503.25;4989293;28;20141;-58
2022/11/03 03:20:07;;;;;;;4.32;1.30;;;;;;;10.06;90.37;99501.97;4991751;28;20046;-58
2022/11/03 03:23:08;;;;;;;4.63;1.35;;;;;;;10.04;90.36;99496.81;4988213;28;20062;-58
2022/11/03 03:26:15;;;;;;;5.43;1.50;;;;;;;10.05;90.92;99497.66;4995456;28;20042;-60
2022/11/03 03:29:04;;;;;;;4.45;1.58;;;;;;;10.13;90.53;99497.22;4978373;28;20100;-60
2022/11/03 03:31:59;;;;;;;3.75;1.30;;;;;;;10.21;89.73;99492.41;4990828;28;20065;-58
2022/11/03 03:34:47;;;;;;;2.92;1.33;;;;;;;10.29;89.54;99476.28;4989127;28;20542;-61
2022/11/03 03:37:35;;;;;;;4.30;1.35;;;;;;;10.28;89.17;99472.81;4987086;28;20501;-57
2022/11/03 03:40:27;;;;;;;3.88;1.33;;;;;;;10.27;89.10;99478.13;4995256;28;20039;-57
2022/11/03 03:43:13;;;;;;;3.25;1.42;;;;;;;10.27;89.21;99462.41;4980526;28;20050;-57
2022/11/03 03:46:02;;;;;;;3.47;1.15;;;;;;;10.21;89.17;99471.47;4979686;28;20049;-57
2022/11/03 03:48:47;;;;;;;4.40;1.75;;;;;;;10.15;90.06;99475.25;4995310;28;20453;-57
2022/11/03 03:51:32;;;;;;;4.97;1.70;;;;;;;10.23;89.79;99472.25;4997164;28;20136;-59
2022/11/03 03:54:17;;;;;;;3.25;1.42;;;;;;;10.22;89.88;99466.16;4994156;28;20049;-58
2022/11/03 03:57:03;;;;;;;8.15;1.88;;;;;;;10.04;90.59;99462.78;4995428;28;20047;-57
2022/11/03 03:59:48;;;;;;;2.45;1.85;;;;;;;10.00;91.11;99458.66;4994301;28;20035;-58
2022/11/03 04:02:33;;;;;;;3.13;1.45;;;;;;;10.16;90.29;99465.66;5000490;28;20060;-58
2022/11/03 04:05:17;;;;;;;4.53;1.60;;;;;;;10.20;90.26;99467.19;4995810;28;20053;-56
2022/11/03 04:08:02;;;;;;;4.68;1.50;;;;;;;10.21;90.17;99464.47;4993287;28;21876;-59
2022/11/03 04:22:59;;;;;;;5.07;2.03;;;;;;;9.80;93.13;99459.72;4995677;28;20398;-57
2022/11/03 04:25:50;;;;;;;4.10;1.73;;;;;;;9.74;93.62;99456.50;4997620;28;20042;-55
2022/11/03 04:28:35;;;;;;;5.43;2.20;;;;;;;9.74;93.95;99458.31;4996610;28;20046;-58
2022/11/03 04:31:20;;;;;;;4.05;2.15;;;;;;;9.96;92.71;99452.72;4998927;28;20406;-58
2022/11/03 04:34:10;;;;;;;4.25;1.60;;;;;;;9.95;92.90;99450.19;4986790;28;20053;-56
2022/11/03 04:36:55;;;;;;;3.78;1.80;;;;;;;10.05;92.49;99442.69;5000164;28;20082;-59
2022/11/03 04:39:40;;;;;;;3.55;1.80;;;;;;;10.03;92.81;99440.16;4995010;28;20489;-57
2022/11/03 04:42:28;;;;;;;6.90;2.08;;;;;;;10.00;93.23;99442.94;4992673;28;20086;-57
2022/11/03 04:45:23;;;;;;;4.55;2.08;;;;;;;9.92;92.93;99432.06;4995965;28;20047;-57
2022/11/03 04:48:15;;;;;;;5.22;1.80;;;;;;;9.78;93.87;99430.19;4993604;28;20417;-54
2022/11/03 04:51:05;;;;;;;3.67;1.58;;;;;;;9.91;93.25;99436.44;4987398;28;20509;-57
2022/11/03 04:53:53;;;;;;;6.15;2.78;;;;;;;9.98;92.86;99423.84;4995984;28;20147;-55
2022/11/03 04:56:39;;;;;;;4.70;2.42;;;;;;;9.67;94.33;99421.16;4997638;28;20161;-59
2022/11/03 04:59:24;;;;;;;5.28;2.60;;;;;;;9.68;95.12;99427.22;4988446;28;20513;-61
2022/11/03 05:02:13;;;;;;;6.45;2.65;;;;;;;9.71;95.21;99422.66;5000200;28;20061;-57
2022/11/03 05:04:58;;;;;;;3.80;1.88;;;;;;;9.68;94.86;99422.84;4995191;28;20344;-57
2022/11/03 05:07:46;;;;;;;5.97;2.10;;;;;;;9.60;95.65;99432.88;4979792;28;20134;-57
2022/11/03 05:10:30;;;;;;;4.72;2.65;;;;;;;9.77;95.04;99425.88;4993081;28;20065;-58
2022/11/03 05:13:27;;;;;;;7.40;3.15;;;;;;;10.43;99.50;99421.34;4998749;28;20046;-54
2022/11/03 05:16:12;;;;;;;6.32;2.90;;;;;;;10.05;95.11;99417.38;4993130;28;20540;-54
2022/11/03 05:18:57;;;;;;;10.07;2.85;;;;;;;9.99;94.31;99415.06;4997217;28;20073;-54
2022/11/03 05:21:42;;;;;;;6.22;3.13;;;;;;;9.92;94.54;99426.81;4993297;28;20121;-58
2022/11/03 05:24:26;;;;;;;4.25;2.70;;;;;;;10.14;99.92;99425.59;4992571;28;20103;-59
2022/11/03 05:27:21;;;;;;;9.35;3.63;;;;;;;10.05;94.16;99433.06;4994615;28;20038;-58
2022/11/03 05:30:13;;;;;;;10.35;3.90;;;;;;;9.85;94.23;99440.25;4997750;28;20667;-57
2022/11/03 05:32:57;;;;;;;5.18;3.25;;;;;;;9.76;94.80;99432.88;4994190;28;20528;-56
2022/11/03 05:35:42;;;;;;;7.47;3.03;;;;;;;9.77;94.66;99426.75;4994435;28;20035;-58
2022/11/03 05:38:30;;;;;;;6.55;3.47;;;;;;;9.70;95.93;99427.97;4993424;28;20061;-54
2022/11/03 05:41:21;;;;;;;6.93;3.03;;;;;;;9.61;96.63;99424.94;4993353;28;20061;-54
2022/11/03 05:44:36;;;;;;;7.45;2.83;;;;;;;9.39;98.33;99427.88;4995032;28;20050;-58
2022/11/03 05:47:30;;;;;;;6.05;3.25;;;;;;;9.04;99.89;99423.56;4998631;28;20344;-54
2022/11/03 05:50:20;;;;;;;6.80;2.97;;;;;;;8.97;100.00;99420.44;4998141;28;20412;-59
2022/11/03 05:53:28;;;;;;;6.95;3.47;;;;;;;9.05;100.00;99424.41;4991902;28;20129;-58
2022/11/03 05:56:18;;;;;;;6.22;3.50;;;;;;;9.02;100.00;99425.41;4992654;28;20104;-58
2022/11/03 05:59:03;;;;;;;12.52;4.13;;;;;;;9.88;100.00;99415.66;4994454;28;20125;-56
2022/11/03 06:01:48;;;;;;;8.05;3.45;;;;;;;11.54;99.80;99419.22;4995392;28;20042;-57
2022/11/03 06:04:38;;;;;;;8.00;3.00;;;;;;;11.40;98.82;99422.72;4991875;28;20042;-57
2022/11/03 06:07:28;;;;;;;8.68;3.28;;;;;;;12.86;91.08;99424.88;4993730;28;20050;-57
2022/11/03 06:10:20;;;;;;;7.45;2.90;;;;;;;12.57;92.93;99431.13;4989505;28;20043;-56
2022/11/03 06:13:10;;;;;;;;;;;;;;;12.52;89.04;99427.97;4989589;28;20042;-56
2022/11/03 06:16:03;;;;;;;7.32;2.45;;;;;;;12.84;89.39;99427.63;4990169;28;19932;-58
2022/11/03 06:18:47;;;;;;;8.45;3.05;;;;;;;13.61;84.26;99440.88;4978248;28;20103;-56
2022/11/03 06:21:32;;;;;;;9.10;3.20;;;;;;;12.29;85.55;99438.22;4995829;28;20038;-56
2022/11/03 06:24:20;;;;;;;8.40;3.25;;;;;;;12.50;84.32;99437.75;4992586;28;20077;-57
2022/11/03 06:27:11;;;;;;;5.22;2.85;;;;;;;11.89;88.72;99437.19;4994504;28;20047;-59
2022/11/03 06:30:19;;;;;;;5.35;2.90;;;;;;;11.80;86.33;99438.59;4994253;28;20053;-58
2022/11/03 06:33:27;;;;;;;6.60;2.90;;;;;;;11.14;89.01;99444.38;4999008;28;20037;-57
2022/11/03 06:36:18;;;;;;;7.28;3.30;;;;;;;10.89;93.84;99447.59;4992833;28;20046;-59
2022/11/03 06:39:20;;;;;;;6.35;2.85;;;;;;;10.90;96.46;99441.44;4974274;28;20041;-55
2022/11/03 06:42:12;;;;;;;7.63;3.22;;;;;;;11.32;96.19;99434.53;4995203;28;20050;-58
2022/11/03 06:44:57;;;;;;;8.35;3.97;;;;;;;11.95;90.28;99431.53;4992259;28;20050;-60
2022/11/03 06:47:41;;;;;;;11.50;4.80;;;;;;;11.55;88.32;99439.31;4991527;28;20045;-60
2022/11/03 06:50:32;;;;;;;7.70;3.00;;;;;;;11.88;88.99;99429.41;4989791;28;20053;-58
2022/11/03 06:53:21;;;;;;;7.75;3.10;;;;;;;11.99;89.74;99429.56;4996091;28;20057;-58
2022/11/03 06:56:15;;;;;;;6.43;2.85;;;;;;;12.03;86.54;99441.53;4994829;28;20038;-60
2022/11/03 06:58:59;;;;;;;5.60;2.92;;;;;;;12.95;84.56;99442.66;4994067;28;20039;-58
2022/11/03 07:01:49;;;;;;;11.27;3.72;;;;;;;12.77;80.97;99445.59;4993351;28;20041;-58
2022/11/03 07:04:34;;;;;;;7.15;3.15;;;;;;;12.57;83.09;99442.50;4990414;28;20061;-58
2022/11/03 07:07:43;;;;;;;8.82;3.00;;;;;;;12.49;82.46;99438.69;4963941;28;20047;-60
2022/11/03 07:10:32;;;;;;;11.05;4.18;;;;;;;13.03;80.29;99445.63;4963903;28;20078;-58
2022/11/03 07:13:23;;;;;;;7.75;3.40;;;;;;;13.17;80.83;99439.41;4965009;28;20042;-60
2022/11/03 07:16:18;;;;;;;10.23;3.40;;;;;;;13.24;79.23;99439.81;4976933;28;20475;-56
2022/11/03 07:19:09;;;;;;;6.40;3.05;;;;;;;13.29;79.39;99445.63;4964223;28;20043;-56
2022/11/03 07:21:54;;;;;;;4.88;2.80;;;;;;;13.43;78.37;99444.66;4968011;28;20047;-56
2022/11/03 07:24:42;;;;;;;7.05;3.50;;;;;;;12.96;79.62;99439.06;4977670;28;20058;-56
2022/11/03 07:27:29;;;;;;;8.32;3.35;;;;;;;13.03;78.79;99440.34;4974180;28;20375;-56
2022/11/03 07:30:23;;;;;;;6.57;4.30;;;;;;;13.04;80.09;99441.22;4979374;28;20050;-58
2022/11/03 07:33:19;;;;;;;9.48;3.78;;;;;;;13.06;80.88;99442.78;4975710;28;20046;-58
2022/11/03 07:36:05;;;;;;;10.65;4.20;;;;;;;13.02;79.29;99437.84;4974351;28;20050;-58
2022/11/03 07:38:52;;;;;;;9.25;3.88;;;;;;;13.63;78.48;99439.81;4993446;28;20053;-59
2022/11/03 07:41:36;;;;;;;5.63;3.67;;;;;;;13.75;75.38;99437.25;4994395;28;20135;-59
2022/11/03 07:44:21;;;;;;;5.72;3.33;;;;;;;13.86;75.61;99436.47;5002344;28;20478;-58
2022/11/03 07:47:12;;;;;;;6.15;3.53;;;;;;;14.64;70.74;99439.59;4999671;28;20402;-59
2022/11/03 07:49:56;;;;;;;5.70;4.13;;;;;;;14.92;71.13;99430.59;4994199;28;20517;-59
2022/11/03 07:52:42;;;;;;;7.38;4.30;;;;;;;15.31;70.00;99425.81;4997862;28;20046;-58
2022/11/03 07:55:26;;;;;;;9.10;4.38;;;;;;;15.05;69.77;99422.59;4999267;28;20422;-58
2022/11/03 07:58:33;;;;;;;7.30;4.25;;;;;;;15.00;69.35;99420.28;4998262;28;20053;-58
2022/11/03 08:01:23;;;;;;;6.57;4.00;;;;;;;15.37;68.70;99420.06;4995716;28;20052;-58
2022/11/03 08:04:23;;;;;;;8.70;4.60;;;;;;;15.81;65.70;99408.75;4992900;28;20061;-59
2022/11/03 08:07:08;;;;;;;7.80;4.57;;;;;;;15.00;68.93;99409.72;4998680;28;20060;-56
2022/11/03 08:09:53;;;;;;;9.93;5.05;;;;;;;14.78;68.91;99412.19;4999329;28;20045;-57
2022/11/03 08:12:38;;;;;;;8.63;5.10;;;;;;;15.05;68.21;99412.84;4993822;28;20386;-58
2022/11/03 08:15:22;;;;;;;9.05;5.10;;;;;;;14.97;70.00;99412.59;4980327;28;20129;-58
2022/11/03 08:18:07;;;;;;;8.70;4.57;;;;;;;16.07;66.16;99403.19;4998642;28;20462;-58
2022/11/03 08:20:52;;;;;;;8.15;4.53;;;;;;;15.54;67.88;99402.03;4993234;28;20489;-59
2022/11/03 08:23:37;;;;;;;10.20;4.88;;;;;;;15.69;65.81;99404.41;4995807;28;21955;-59
2022/11/03 08:26:22;;;;;;;10.55;5.32;;;;;;;14.18;72.65;99390.31;4999654;28;20057;-57
2022/11/03 08:29:06;;;;;;;8.70;4.97;;;;;;;15.08;69.19;99391.50;4994347;28;20138;-58
2022/11/03 08:31:52;;;;;;;13.55;5.50;;;;;;;13.73;74.39;99389.13;4996589;28;20049;-58
2022/11/03 08:34:37;;;;;;;9.60;5.30;;;;;;;13.64;76.06;99391.47;4994230;28;20510;-59
2022/11/03 08:37:21;;;;;;;8.23;4.70;;;;;;;14.02;76.11;99386.16;4997038;28;20046;-58
2022/11/03 08:40:07;;;;;;;17.40;6.05;;;;;;;13.30;78.27;99386.75;4994243;28;20046;-59
2022/11/03 08:42:52;;;;;;;10.32;5.13;;;;;;;13.62;79.75;99379.38;4985856;28;20470;-59
2022/11/03 08:45:36;;;;;;;8.80;5.47;;;;;;;13.45;78.75;99383.19;4993412;28;20078;-56
2022/11/03 08:48:25;;;;;;;13.07;6.38;;;;;;;12.56;82.22;99376.91;4995978;28;20443;-58
2022/11/03 08:51:12;;;;;;;9.52;5.97;;;;;;;13.16;82.97;99382.47;4995544;28;20283;-58
2022/11/03 08:53:56;;;;;;;9.73;5.10;;;;;;;13.92;80.03;99373.66;4980801;28;20453;-58
2022/11/03 08:56:42;;;;;;;11.55;6.63;;;;;;;13.10;81.56;99382.06;4996128;28;20046;-59
2022/11/03 08:59:27;;;;;;;11.55;7.32;;;;;;;12.34;85.23;99369.63;4996311;28;20548;-58
2022/11/03 09:02:11;;;;;;;12.05;6.57;;;;;;;12.40;84.66;99359.50;4993837;28;20046;-58
2022/11/03 09:04:56;;;;;;;11.85;7.25;;;;;;;12.53;85.59;99358.72;4993378;28;20046;-57
2022/11/03 09:07:40;;;;;;;12.55;7.45;;;;;;;13.69;81.42;99337.66;4992037;28;20395;-58
2022/11/03 09:10:25;;;;;;;9.85;6.63;;;;;;;14.16;76.73;99340.38;4999524;28;20054;-59
2022/11/03 09:13:10;;;;;;;9.38;6.15;;;;;;;13.65;79.88;99345.78;4995564;28;20049;-59
2022/11/03 09:15:54;;;;;;;11.18;5.82;;;;;;;13.93;77.86;99335.00;4992968;28;20476;-58
2022/11/03 09:18:39;;;;;;;13.15;6.80;;;;;;;14.11;77.13;99324.91;4991008;28;20085;-58
2022/11/03 09:21:23;;;;;;;10.95;6.72;;;;;;;14.45;74.50;99326.78;4986862;28;20050;-56
2022/11/03 09:24:08;;;;;;;11.48;6.95;;;;;;;14.39;74.71;99320.16;4995374;28;20478;-57
2022/11/03 09:26:52;;;;;;;11.20;6.15;;;;;;;14.61;73.78;99322.97;4990002;28;20069;-60
2022/11/03 09:29:37;;;;;;;14.50;7.35;;;;;;;15.13;72.05;99318.09;4988229;28;20140;-55
2022/11/03 09:32:22;;;;;;;10.57;5.78;;;;;;;15.07;71.88;99313.31;5001062;28;20050;-57
2022/11/03 09:35:08;;;;;;;11.50;6.32;;;;;;;15.14;71.00;99306.59;4992420;28;20045;-59
2022/11/03 09:37:53;;;;;;;8.00;5.25;;;;;;;15.40;70.14;99297.56;4980247;28;20070;-57
2022/11/03 09:40:37;;;;;;;10.68;6.05;;;;;;;15.57;68.76;99298.81;4995919;28;20050;-58
2022/11/03 09:43:22;;;;;;;11.15;5.70;;;;;;;16.25;66.20;99295.06;4993522;28;20042;-58
2022/11/03 09:46:10;;;;;;;11.65;6.00;;;;;;;15.96;66.78;99287.75;4994749;28;20054;-57
2022/11/03 09:48:55;;;;;;;12.98;6.13;;;;;;;15.87;66.97;99277.94;4992451;28;20042;-57
2022/11/03 09:51:40;;;;;;;7.82;5.70;;;;;;;15.80;67.05;99280.25;4995227;28;20055;-57
2022/11/03 09:54:26;;;;;;;14.20;6.57;;;;;;;15.92;67.61;99267.84;4979872;28;20039;-59
2022/11/03 09:57:12;;;;;;;11.88;5.88;;;;;;;16.38;65.64;99263.19;4996695;28;20051;-59
2022/11/03 09:59:57;;;;;;;10.93;5.70;;;;;;;16.70;64.74;99261.34;4997813;28;20057;-59
2022/11/03 10:02:42;;;;;;;11.45;5.88;;;;;;;16.66;63.80;99252.03;4995550;28;20046;-59
2022/11/03 10:05:27;;;;;;;9.60;5.95;;;;;;;16.30;63.22;99251.56;4992800;28;20054;-61
2022/11/03 10:08:23;;;;;;;8.32;5.65;;;;;;;16.93;62.45;99245.28;4995664;28;20433;-61
2022/11/03 10:11:08;;;;;;;9.38;4.50;;;;;;;17.47;60.86;99239.69;4992712;28;20050;-60
2022/11/03 10:13:55;;;;;;;8.93;4.70;;;;;;;17.68;57.20;99233.44;4992733;28;20084;-60
2022/11/03 10:16:41;;;;;;;7.43;4.35;;;;;;;18.83;54.47;99229.09;4995014;28;20055;-57
2022/11/03 10:19:26;;;;;;;10.57;4.28;;;;;;;19.25;52.66;99227.75;4978374;28;20404;-58
2022/11/03 10:22:10;;;;;;;7.45;4.18;;;;;;;19.20;53.07;99220.25;4997762;28;20050;-58
2022/11/03 10:25:32;;;;;;;6.50;4.35;;;;;;;17.88;55.77;99219.31;4991668;28;20046;-58
2022/11/03 10:28:21;;;;;;;10.00;4.65;;;;;;;18.46;54.46;99206.91;4990794;28;20046;-57
2022/11/03 10:31:17;;;;;;;7.57;4.40;;;;;;;17.71;55.23;99193.41;4993308;28;20046;-58
2022/11/03 10:34:03;;;;;;;7.50;4.25;;;;;;;18.83;53.11;99191.94;4977556;28;20402;-58
2022/11/03 10:36:48;;;;;;;10.50;4.32;;;;;;;17.66;55.91;99187.69;4994956;28;20046;-58
2022/11/03 10:39:33;;;;;;;9.63;4.82;;;;;;;17.35;56.82;99195.78;4989414;28;20049;-59
2022/11/03 10:42:29;;;;;;;10.82;5.25;;;;;;;17.50;57.02;99182.97;4991856;28;20046;-58
2022/11/03 10:45:17;;;;;;;7.32;4.78;;;;;;;16.77;58.51;99190.25;4989462;28;20042;-58
2022/11/03 10:48:08;;;;;;;10.57;5.10;;;;;;;17.97;54.50;99168.94;4994672;28;20089;-59
2022/11/03 10:50:52;;;;;;;;;;;;;;;18.13;53.75;99169.38;4993244;28;20057;-59
2022/11/03 10:53:39;;;;;;;7.75;4.38;;;;;;;18.65;53.13;99165.38;4996284;28;19937;-59
2022/11/03 10:56:25;;;;;;;9.98;4.90;;;;;;;18.77;51.35;99156.22;4978619;28;20165;-58
2022/11/03 10:59:17;;;;;;;8.75;4.20;;;;;;;17.09;54.01;99162.75;4997373;28;20054;-59
2022/11/03 11:02:11;;;;;;;6.25;3.08;;;;;;;19.01;51.00;99143.34;4992296;28;20042;-58
2022/11/03 11:05:02;;;;;;;9.10;4.18;;;;;;;18.30;50.67;99144.72;4976635;28;20049;-60
2022/11/03 11:07:49;;;;;;;;;;;;;;;18.49;51.73;99142.97;4996462;28;20050;-60
2022/11/03 11:10:33;;;;;;;7.75;4.55;;;;;;;18.13;52.12;99141.06;4995093;28;19938;-58
2022/11/03 11:13:21;;;;;;;9.13;4.13;;;;;;;18.93;50.19;99142.28;4998068;28;20276;-58
2022/11/03 11:16:44;;;;;;;7.28;4.10;;;;;;;18.56;52.04;99136.09;4997547;28;20042;-59
2022/11/03 11:19:33;;;;;;;9.27;3.88;;;;;;;19.24;50.58;99134.97;4991505;28;20057;-60
2022/11/03 11:22:21;;;;;;;6.80;4.20;;;;;;;18.74;51.68;99145.06;4992175;28;20066;-61
2022/11/03 11:25:06;;;;;;;8.93;4.45;;;;;;;17.75;56.22;99140.13;4993341;28;20064;-58
2022/11/03 11:27:55;;;;;;;6.53;3.67;;;;;;;18.30;54.74;99134.13;4994645;28;20042;-59
2022/11/03 11:30:40;;;;;;;6.85;4.75;;;;;;;18.16;56.21;99139.91;4997396;28;20034;-60
2022/11/03 11:33:27;;;;;;;8.68;4.97;;;;;;;18.65;55.14;99117.63;4982544;28;20057;-59
2022/11/03 11:36:23;;;;;;;9.35;5.15;;;;;;;18.88;53.77;99122.50;4991869;28;20050;-60
2022/11/03 11:39:32;;;;;;;8.32;4.72;;;;;;;19.67;52.13;99111.22;4992146;28;20062;-59
2022/11/03 11:42:18;;;;;;;8.88;5.65;;;;;;;18.84;54.48;99106.88;4995646;28;20046;-58
2022/11/03 11:45:04;;;;;;;8.55;5.00;;;;;;;19.15;54.05;99107.50;4987253;28;20413;-58
2022/11/03 11:47:49;;;;;;;10.82;5.45;;;;;;;18.90;55.44;99092.16;4996017;28;20046;-58
2022/11/03 11:50:34;;;;;;;8.13;5.40;;;;;;;19.42;54.12;99092.47;4995309;28;20044;-58
2022/11/03 11:53:21;;;;;;;8.45;4.93;;;;;;;19.01;54.98;99090.28;4999244;28;20041;-58
2022/11/03 11:56:10;;;;;;;11.20;5.75;;;;;;;18.34;57.72;99077.16;4989472;28;20047;-59
2022/11/03 11:58:55;;;;;;;10.10;5.82;;;;;;;18.76;56.04;99077.59;4990347;28;20030;-59
2022/11/03 12:01:40;;;;;;;8.57;4.63;;;;;;;18.97;56.17;99068.50;4995600;28;20354;-60
2022/11/03 12:04:27;;;;;;;7.85;4.85;;;;;;;19.98;53.33;99056.72;4985469;28;20070;-59
2022/11/03 12:07:12;;;;;;;10.68;5.55;;;;;;;18.98;56.04;99050.75;4978478;28;20115;-58
2022/11/03 12:10:07;;;;;;;8.70;5.38;;;;;;;20.21;53.11;99041.06;4997140;28;20453;-60
2022/11/03 12:12:53;;;;;;;9.48;5.65;;;;;;;18.43;57.98;99038.31;4998569;28;20069;-59
2022/11/03 12:15:55;;;;;;;10.32;6.60;;;;;;;18.93;57.16;99028.16;4991052;28;20180;-58
2022/11/03 12:18:42;;;;;;;10.35;5.65;;;;;;;17.00;62.91;99031.25;4994595;28;20053;-57
2022/11/03 12:21:49;;;;;;;8.13;5.03;;;;;;;17.61;62.81;99031.84;4996497;28;20138;-59
2022/11/03 12:24:36;;;;;;;10.50;6.45;;;;;;;16.68;65.02;99027.88;4998766;28;20050;-59
2022/11/03 12:27:24;;;;;;;9.30;6.05;;;;;;;16.18;67.84;99013.78;4967535;28;20052;-59
2022/11/03 12:30:14;;;;;;;10.63;5.60;;;;;;;16.61;66.93;99006.44;4994838;28;20045;-60
2022/11/03 12:33:00;;;;;;;9.57;5.55;;;;;;;16.18;68.83;98999.72;4996193;28;20050;-58
2022/11/03 12:35:44;;;;;;;9.18;5.82;;;;;;;15.83;69.64;98992.09;4992629;28;20046;-58
2022/11/03 12:38:29;;;;;;;8.20;5.43;;;;;;;16.05;69.82;98984.13;4997225;28;20049;-60
2022/11/03 12:41:20;;;;;;;10.80;5.82;;;;;;;15.81;70.76;98972.06;4999096;28;20137;-61
2022/11/03 12:44:04;;;;;;;13.43;5.82;;;;;;;16.18;69.95;98965.38;4995820;28;20050;-57
2022/11/03 12:46:49;;;;;;;11.57;6.15;;;;;;;16.31;69.15;98954.53;4999489;28;20056;-59
2022/11/03 12:49:33;;;;;;;10.73;6.10;;;;;;;16.18;69.96;98952.16;4999657;28;20045;-59
2022/11/03 12:52:18;;;;;;;8.30;5.88;;;;;;;16.10;70.15;98948.41;4994797;28;20113;-59
2022/11/03 12:55:03;;;;;;;10.60;5.47;;;;;;;15.97;70.92;98945.13;4994654;28;20046;-59
2022/11/03 12:57:47;;;;;;;11.75;5.72;;;;;;;15.89;71.04;98938.75;4995508;28;20046;-59
2022/11/03 13:00:31;;;;;;;10.77;6.25;;;;;;;15.61;72.21;98932.38;4981664;28;20037;-60
2022/11/03 13:03:16;;;;;;;8.63;5.43;;;;;;;16.30;69.96;98929.06;4995112;28;20042;-58
2022/11/03 13:06:03;;;;;;;9.18;5.55;;;;;;;16.84;67.72;98916.22;4994689;28;20046;-58
2022/11/03 13:08:49;;;;;;;11.10;6.50;;;;;;;17.36;64.82;98917.63;4998483;28;20056;-58
2022/11/03 13:14:37;;;;;;;11.90;5.57;;;;;;;17.30;64.24;98920.06;4997628;28;20129;-57
2022/11/03 13:17:22;;;;;;;12.30;4.55;;;;;;;17.45;64.45;98917.75;4981459;28;20094;-58
2022/11/03 13:20:07;;;;;;;10.45;4.50;;;;;;;17.64;62.17;98913.34;4998912;28;20081;-57
2022/11/03 13:22:51;;;;;;;7.43;3.65;;;;;;;18.13;60.11;98913.06;4998485;28;20242;-57
2022/11/03 13:25:36;;;;;;;7.13;3.58;;;;;;;18.25;59.05;98913.66;4996925;28;20050;-58
2022/11/03 13:28:20;;;;;;;7.97;3.47;;;;;;;18.48;58.37;98913.19;4997779;28;20076;-55
2022/11/03 13:31:05;;;;;;;8.25;3.90;;;;;;;18.24;58.97;98900.56;4997510;28;20038;-60
2022/11/03 13:33:51;;;;;;;7.35;3.58;;;;;;;17.78;60.05;98901.41;4991472;28;20038;-57
2022/11/03 13:36:35;;;;;;;8.77;3.65;;;;;;;17.94;59.51;98893.63;4979733;28;20116;-58